Terminal Aerodrome Forecast
Issued by NWS

Home | Current Version | Previous Version | Text Only | Print | Product List | Glossary On
Versions: 1 2 3 4 5 6 7 8 9 10 11 12 13 14 15 16 17 18 19 20 21 22 23 24 25 26
242
FTUS41 KBUF 221136
TAFIAG
TAF
KIAG 221136Z 2212/2312 00000KT 1/2SM FG SCT003 SCT015
      TEMPO 2212/2214 19004KT 3SM BR
     FM221400 19004KT P6SM BKN040
     FM221700 21010KT P6SM BKN025
     FM222000 22013KT 3SM BR BKN025
     FM230300 20008KT P6SM BKN020
     FM230400 20009KT 3SM BR BKN025=

USA.gov is the U.S. government's official web portal to all federal, state and local government web resources and services.